Time;durP1;ratioP1;P1;durP2;ratioP2;P2;SDS_P1;SDS_P2;PMS_P1;PMS_P2;Temp;Humidity;BMP_temperature;BMP_pressure;BME280_temperature;BME280_humidity;BME280_pressure;Samples;Min_cycle;Max_cycle;Signal;HPM_P1;HPM_P2
2023/01/12 00:01:37;;;;;;;7.33;2.40;;;8.50;99.90;;;;;;5019195;28;20140;-88
2023/01/12 00:04:04;;;;;;;10.53;3.27;;;8.50;99.90;;;;;;5024796;28;20563;-87
2023/01/12 00:06:33;;;;;;;9.27;2.80;;;8.50;99.90;;;;;;5039063;28;20033;-89
2023/01/12 00:09:01;;;;;;;13.53;3.33;;;8.40;99.90;;;;;;5055622;28;20062;-87
2023/01/12 00:11:27;;;;;;;12.13;3.17;;;8.40;99.90;;;;;;5038395;28;20139;-87
2023/01/12 00:13:53;;;;;;;11.53;3.50;;;8.40;99.90;;;;;;5055776;28;20051;-88
2023/01/12 00:16:33;;;;;;;13.10;3.97;;;8.40;99.90;;;;;;5037717;28;20424;-87
2023/01/12 00:19:17;;;;;;;13.60;4.37;;;8.40;99.90;;;;;;5023218;28;20084;-89
2023/01/12 00:24:33;;;;;;;13.97;4.07;;;8.40;99.90;;;;;;5054935;28;20454;-88
2023/01/12 00:27:00;;;;;;;12.60;4.43;;;8.30;99.90;;;;;;5024648;28;20049;-86
2023/01/12 00:29:27;;;;;;;13.37;3.93;;;8.30;99.90;;;;;;5014053;28;20042;-85
2023/01/12 00:31:55;;;;;;;13.30;3.60;;;8.30;99.90;;;;;;5041309;28;20033;-85
2023/01/12 00:34:21;;;;;;;13.43;3.50;;;8.30;99.90;;;;;;5053269;28;20032;-84
2023/01/12 00:36:47;;;;;;;17.77;4.03;;;8.30;99.90;;;;;;5024845;28;20040;-86
2023/01/12 00:39:14;;;;;;;16.17;5.00;;;8.30;99.90;;;;;;5014079;28;20046;-86
2023/01/12 00:47:11;;;;;;;15.57;4.33;;;8.20;99.90;;;;;;5015560;28;20046;-89
2023/01/12 00:49:37;;;;;;;22.60;4.80;;;8.20;99.90;;;;;;5013624;28;20079;-87
2023/01/12 00:52:05;;;;;;;17.57;5.37;;;8.20;99.90;;;;;;5020504;28;20044;-89
2023/01/12 00:54:32;;;;;;;19.43;4.33;;;8.20;99.90;;;;;;5017011;28;20050;-87
2023/01/12 00:56:57;;;;;;;19.40;4.67;;;8.20;99.90;;;;;;5019325;28;20048;-88
2023/01/12 00:59:23;;;;;;;18.70;5.37;;;8.20;99.90;;;;;;5019192;28;20037;-90
2023/01/12 01:01:49;;;;;;;17.50;3.90;;;8.20;99.90;;;;;;5033743;28;20041;-89
2023/01/12 01:04:15;;;;;;;12.30;3.90;;;8.20;99.90;;;;;;5051911;28;20041;-89
2023/01/12 01:06:41;;;;;;;15.77;4.20;;;8.20;99.90;;;;;;5035938;28;20048;-88
2023/01/12 01:09:07;;;;;;;14.97;4.13;;;8.20;99.90;;;;;;5037243;28;20186;-89
2023/01/12 01:11:33;;;;;;;13.13;3.70;;;8.20;99.90;;;;;;5022797;28;20052;-89
2023/01/12 01:13:59;;;;;;;16.70;4.00;;;8.20;99.90;;;;;;5042299;28;20131;-87
2023/01/12 01:16:25;;;;;;;17.67;4.77;;;8.20;99.90;;;;;;5042667;28;20048;-88
2023/01/12 01:18:51;;;;;;;22.57;5.13;;;8.30;99.90;;;;;;5059204;28;20044;-89
2023/01/12 01:21:20;;;;;;;18.03;4.40;;;8.30;99.90;;;;;;5031350;28;20053;-87
2023/01/12 01:23:46;;;;;;;12.00;4.00;;;8.30;99.90;;;;;;5029461;28;20033;-88
2023/01/12 01:26:15;;;;;;;17.10;4.00;;;8.30;99.90;;;;;;5036726;28;20127;-89
2023/01/12 01:28:41;;;;;;;18.37;4.57;;;8.20;99.90;;;;;;5003485;28;20037;-88
2023/01/12 01:31:10;;;;;;;15.53;4.57;;;8.20;99.90;;;;;;5020971;28;20040;-88
2023/01/12 01:33:36;;;;;;;18.93;4.80;;;8.20;99.90;;;;;;5023565;28;20045;-89
2023/01/12 01:36:02;;;;;;;17.33;3.70;;;8.20;99.90;;;;;;5036029;28;20472;-88
2023/01/12 01:38:28;;;;;;;14.33;4.47;;;8.30;99.90;;;;;;5055757;28;20076;-87
2023/01/12 01:40:55;;;;;;;16.00;4.53;;;8.30;99.90;;;;;;5038812;28;20068;-88
2023/01/12 01:43:23;;;;;;;17.83;4.07;;;8.30;99.90;;;;;;5024406;28;20111;-87
2023/01/12 01:46:09;;;;;;;17.90;4.93;;;8.30;99.90;;;;;;5039313;28;20048;-90
2023/01/12 01:48:37;;;;;;;16.00;4.17;;;8.30;99.90;;;;;;5027253;28;20044;-88
2023/01/12 01:51:09;;;;;;;16.10;4.07;;;8.30;99.90;;;;;;5004212;28;20076;-86
2023/01/12 01:53:38;;;;;;;17.80;4.10;;;8.30;99.90;;;;;;5003794;28;20108;-86
2023/01/12 01:56:10;;;;;;;16.97;3.90;;;8.30;99.90;;;;;;5040821;28;20095;-84
2023/01/12 01:58:46;;;;;;;17.10;4.40;;;8.40;99.90;;;;;;5023265;28;20144;-86
2023/01/12 02:01:12;;;;;;;14.50;4.77;;;8.30;99.90;;;;;;5018297;28;20741;-84
2023/01/12 02:03:40;;;;;;;17.87;4.73;;;8.40;99.90;;;;;;5031755;28;20041;-87
2023/01/12 02:06:07;;;;;;;19.93;4.73;;;8.40;99.90;;;;;;5020569;28;20037;-86
2023/01/12 02:08:42;;;;;;;16.97;4.30;;;8.40;99.90;;;;;;5004348;28;20068;-85
2023/01/12 02:16:19;;;;;;;15.47;4.40;;;8.40;99.90;;;;;;5020085;28;20488;-85
2023/01/12 02:16:53;;;;;;;15.87;4.40;;;8.40;99.90;;;;;;5028639;28;20052;-88
2023/01/12 02:19:40;;;;;;;16.13;4.43;;;8.40;99.90;;;;;;5021327;28;20049;-87
2023/01/12 02:22:47;;;;;;;20.20;4.53;;;8.40;99.90;;;;;;5018049;28;20049;-88
2023/01/12 02:25:34;;;;;;;15.40;3.77;;;8.40;99.90;;;;;;5002080;28;20501;-90
2023/01/12 02:28:35;;;;;;;13.30;3.87;;;8.40;99.90;;;;;;5002000;28;20071;-87
2023/01/12 02:31:32;;;;;;;17.03;4.27;;;8.50;99.90;;;;;;5035790;28;20041;-88
2023/01/12 02:34:03;;;;;;;18.87;3.73;;;8.50;99.90;;;;;;5035747;28;20037;-88
2023/01/12 02:36:50;;;;;;;16.70;5.40;;;8.50;99.90;;;;;;5028055;28;20049;-88
2023/01/12 02:39:34;;;;;;;16.47;4.90;;;8.50;99.90;;;;;;5019949;28;20037;-86
2023/01/12 02:45:08;;;;;;;11.27;4.07;;;8.50;99.90;;;;;;5041147;28;20081;-88
2023/01/12 02:47:48;;;;;;;11.95;4.15;;;8.50;99.90;;;;;;5037780;28;20168;-89
2023/01/12 02:50:20;;;;;;;17.47;5.00;;;8.50;99.90;;;;;;5020994;28;20110;-88
2023/01/12 02:52:47;;;;;;;;;;;8.50;99.90;;;;;;5021760;28;20040;-88
2023/01/12 02:55:16;;;;;;;15.40;4.70;;;8.50;99.90;;;;;;5026148;28;19939;-88
2023/01/12 02:57:43;;;;;;;21.07;5.20;;;8.50;99.90;;;;;;5018269;28;20474;-87
2023/01/12 03:00:13;;;;;;;16.73;5.07;;;8.50;99.90;;;;;;5019132;28;20088;-88
2023/01/12 03:02:39;;;;;;;24.20;4.93;;;8.50;99.90;;;;;;5023893;28;20120;-91
2023/01/12 03:05:05;;;;;;;18.73;5.40;;;8.50;99.90;;;;;;5035053;28;20068;-86
2023/01/12 03:07:49;;;;;;;24.37;6.10;;;8.50;99.90;;;;;;4986185;28;20049;-89
2023/01/12 03:10:38;;;;;;;21.87;6.23;;;8.40;99.90;;;;;;5005111;28;20057;-89
2023/01/12 03:13:08;;;;;;;21.40;6.00;;;8.40;99.90;;;;;;5021060;28;20091;-88
2023/01/12 03:15:43;;;;;;;19.70;5.57;;;8.40;99.90;;;;;;5019473;28;20131;-84
2023/01/12 03:18:15;;;;;;;19.17;5.43;;;8.40;99.90;;;;;;5045252;28;20448;-84
2023/01/12 03:20:54;;;;;;;15.00;4.93;;;8.40;99.90;;;;;;5034790;28;20041;-84
2023/01/12 03:23:28;;;;;;;21.23;5.53;;;8.40;99.90;;;;;;5034882;28;20052;-84
2023/01/12 03:25:56;;;;;;;22.97;5.07;;;8.40;99.90;;;;;;5035415;28;20044;-85
2023/01/12 03:28:27;;;;;;;19.87;5.37;;;8.40;99.90;;;;;;5018590;28;20052;-84
2023/01/12 03:31:01;;;;;;;18.53;5.20;;;8.40;99.90;;;;;;5036578;28;20076;-85
2023/01/12 03:33:28;;;;;;;17.27;5.10;;;8.40;99.90;;;;;;5034720;28;20095;-84
2023/01/12 03:36:06;;;;;;;17.27;6.13;;;8.40;99.90;;;;;;5034632;28;20377;-87
2023/01/12 03:38:45;;;;;;;17.13;5.93;;;8.40;99.90;;;;;;5034504;28;20044;-85
2023/01/12 03:41:25;;;;;;;19.70;5.53;;;8.40;99.90;;;;;;5014620;28;20037;-84
2023/01/12 03:43:58;;;;;;;17.87;5.87;;;8.40;99.90;;;;;;5012900;28;20428;-83
2023/01/12 03:46:36;;;;;;;16.80;6.20;;;8.40;99.90;;;;;;5027550;28;20492;-86
2023/01/12 03:49:12;;;;;;;15.13;5.63;;;8.50;99.90;;;;;;5050371;28;20292;-84
2023/01/12 03:51:42;;;;;;;13.90;4.83;;;8.50;99.90;;;;;;5030548;28;20044;-84
2023/01/12 03:54:11;;;;;;;12.90;4.50;;;8.50;99.90;;;;;;5018490;28;20049;-85
2023/01/12 03:56:39;;;;;;;14.70;5.03;;;8.50;99.90;;;;;;5034497;28;20514;-82
2023/01/12 03:59:05;;;;;;;14.90;5.13;;;8.50;99.90;;;;;;5025168;28;20082;-83
2023/01/12 04:01:31;;;;;;;15.07;5.00;;;8.60;99.90;;;;;;5017633;28;20048;-85
2023/01/12 04:03:57;;;;;;;13.93;4.50;;;8.50;99.90;;;;;;5034100;28;20079;-86
2023/01/12 04:06:25;;;;;;;11.53;4.37;;;8.60;99.90;;;;;;5033438;28;20068;-85
2023/01/12 04:08:51;;;;;;;10.57;4.63;;;8.50;99.90;;;;;;5034196;28;20132;-84
2023/01/12 04:14:01;;;;;;;11.87;4.97;;;8.50;99.90;;;;;;5035186;28;20048;-86
2023/01/12 04:16:27;;;;;;;11.00;4.80;;;8.50;99.90;;;;;;5017457;28;20051;-85
2023/01/12 04:18:53;;;;;;;14.93;5.23;;;8.50;99.90;;;;;;5034086;28;20045;-85
2023/01/12 04:24:03;;;;;;;15.53;5.33;;;8.50;99.90;;;;;;5036333;28;20114;-85
2023/01/12 04:26:29;;;;;;;12.30;5.30;;;8.50;99.90;;;;;;5033489;28;20488;-84
2023/01/12 04:28:55;;;;;;;10.73;4.77;;;8.50;99.90;;;;;;5043391;28;20110;-85
2023/01/12 04:31:20;;;;;;;10.37;4.80;;;8.50;99.90;;;;;;5028615;28;20052;-83
2023/01/12 04:33:46;;;;;;;16.27;5.70;;;8.50;99.90;;;;;;5030939;28;20051;-86
2023/01/12 04:36:12;;;;;;;10.77;4.57;;;8.50;99.90;;;;;;5033775;28;20126;-84
2023/01/12 04:38:39;;;;;;;14.33;4.90;;;8.60;99.90;;;;;;5025133;28;20052;-87
2023/01/12 04:41:06;;;;;;;9.77;4.83;;;8.60;99.90;;;;;;5031022;28;20036;-84
2023/01/12 04:43:32;;;;;;;9.63;3.43;;;8.60;99.90;;;;;;5032138;28;20032;-86
2023/01/12 04:46:02;;;;;;;9.70;3.70;;;8.60;99.90;;;;;;5033638;28;20048;-85
2023/01/12 04:48:28;;;;;;;9.93;3.80;;;8.60;99.90;;;;;;5033704;28;20049;-83
2023/01/12 04:50:54;;;;;;;9.27;4.30;;;8.60;99.90;;;;;;5032000;28;20512;-83
2023/01/12 04:53:20;;;;;;;11.50;3.90;;;8.60;99.90;;;;;;5053193;28;20042;-83
2023/01/12 04:55:46;;;;;;;9.00;4.07;;;8.60;99.90;;;;;;5053308;28;20056;-84
2023/01/12 04:58:12;;;;;;;8.17;3.80;;;8.60;99.90;;;;;;5026142;28;20134;-84
2023/01/12 05:00:38;;;;;;;10.33;4.20;;;8.50;99.90;;;;;;5027446;28;20041;-83
2023/01/12 05:03:03;;;;;;;6.43;3.40;;;8.50;99.90;;;;;;5016684;28;20041;-86
2023/01/12 05:05:32;;;;;;;7.50;2.83;;;8.60;99.90;;;;;;5025686;28;20073;-85
2023/01/12 05:10:51;;;;;;;7.43;3.10;;;8.50;99.90;;;;;;5031572;28;20060;-84
2023/01/12 05:13:17;;;;;;;6.20;2.80;;;8.50;99.90;;;;;;5011935;28;20222;-83
2023/01/12 05:15:43;;;;;;;5.27;2.50;;;8.50;99.90;;;;;;5027293;28;20126;-84
2023/01/12 05:18:09;;;;;;;8.40;2.60;;;8.50;99.90;;;;;;5036466;28;20052;-86
2023/01/12 05:20:34;;;;;;;5.93;2.17;;;8.40;99.90;;;;;;5020246;28;20037;-82
2023/01/12 05:23:00;;;;;;;6.53;2.03;;;8.40;99.90;;;;;;5004520;28;20082;-86
2023/01/12 05:25:27;;;;;;;6.97;2.00;;;8.40;99.90;;;;;;5006162;28;20217;-86
2023/01/12 05:27:56;;;;;;;6.30;2.40;;;8.40;99.90;;;;;;5029743;28;20033;-85
2023/01/12 05:30:22;;;;;;;7.80;2.37;;;8.40;99.90;;;;;;5041350;28;20049;-84
2023/01/12 05:32:48;;;;;;;5.87;2.13;;;8.30;99.90;;;;;;5004863;28;20147;-86
2023/01/12 05:35:14;;;;;;;5.23;2.10;;;8.30;99.90;;;;;;5026970;28;20540;-85
2023/01/12 05:37:40;;;;;;;6.80;2.20;;;8.30;99.90;;;;;;5032785;28;20447;-85
2023/01/12 05:40:06;;;;;;;6.27;2.20;;;8.30;99.90;;;;;;5026434;28;20128;-84
2023/01/12 05:45:16;;;;;;;7.23;2.20;;;8.30;99.90;;;;;;5012818;28;20037;-85
2023/01/12 05:47:42;;;;;;;5.97;2.27;;;8.30;99.90;;;;;;5010798;28;20124;-84
2023/01/12 05:50:08;;;;;;;4.00;1.97;;;8.30;99.90;;;;;;5017721;28;20053;-83
2023/01/12 05:52:34;;;;;;;5.50;1.90;;;8.30;99.90;;;;;;5002329;28;20049;-83
2023/01/12 05:54:59;;;;;;;4.93;1.67;;;8.30;99.90;;;;;;5031639;28;20060;-85
2023/01/12 05:57:27;;;;;;;5.57;2.00;;;8.30;99.90;;;;;;5035289;28;20079;-83
2023/01/12 05:59:53;;;;;;;3.33;1.67;;;8.30;99.90;;;;;;5019763;28;20099;-81
2023/01/12 06:02:20;;;;;;;5.90;2.00;;;8.30;99.90;;;;;;5033608;28;20480;-84
2023/01/12 06:04:46;;;;;;;6.03;1.70;;;8.30;99.90;;;;;;5016721;28;20183;-82
2023/01/12 06:07:12;;;;;;;4.77;1.70;;;8.30;99.90;;;;;;5002414;28;20112;-82
2023/01/12 06:09:39;;;;;;;5.40;1.90;;;8.30;99.90;;;;;;4994067;28;20138;-83
2023/01/12 06:14:50;;;;;;;5.23;1.83;;;8.30;99.90;;;;;;4987664;28;20038;-82
2023/01/12 06:17:16;;;;;;;7.03;1.70;;;8.30;99.90;;;;;;5016222;28;20069;-82
2023/01/12 06:19:41;;;;;;;7.10;1.90;;;8.40;99.90;;;;;;5012937;28;20463;-84
2023/01/12 06:22:07;;;;;;;3.90;1.70;;;8.40;99.90;;;;;;5012745;28;20117;-85
2023/01/12 06:24:33;;;;;;;4.63;1.90;;;8.40;99.90;;;;;;5012538;28;20034;-83
2023/01/12 06:26:59;;;;;;;7.03;2.13;;;8.40;99.90;;;;;;5013832;28;20034;-85
2023/01/12 06:29:24;;;;;;;5.10;2.07;;;8.40;99.90;;;;;;5012484;28;20088;-81
2023/01/12 06:31:50;;;;;;;5.07;1.83;;;8.40;99.90;;;;;;4995941;28;20049;-81
2023/01/12 06:34:16;;;;;;;5.90;1.97;;;8.50;99.90;;;;;;5012677;28;20120;-82
2023/01/12 06:36:42;;;;;;;5.80;1.63;;;8.50;99.90;;;;;;5012814;28;20042;-83
2023/01/12 06:39:10;;;;;;;3.07;1.77;;;8.50;99.90;;;;;;5012510;28;20397;-83
2023/01/12 06:44:20;;;;;;;2.90;1.30;;;8.60;99.90;;;;;;5012480;28;20048;-82
2023/01/12 06:46:45;;;;;;;4.77;1.33;;;8.60;99.90;;;;;;5012457;28;20037;-85
2023/01/12 06:49:11;;;;;;;2.93;1.30;;;8.60;99.90;;;;;;5012023;28;20030;-85
2023/01/12 06:51:37;;;;;;;2.57;1.60;;;8.60;99.90;;;;;;4985178;28;20642;-85
2023/01/12 06:54:02;;;;;;;1.93;1.37;;;8.70;99.90;;;;;;5011297;28;20042;-84
2023/01/12 06:56:28;;;;;;;2.67;1.07;;;8.70;99.90;;;;;;5013379;28;20053;-83
2023/01/12 06:58:54;;;;;;;2.63;1.30;;;8.80;99.90;;;;;;5028075;28;20048;-85
2023/01/12 07:01:20;;;;;;;3.03;1.30;;;8.80;99.90;;;;;;4996612;28;20595;-85
2023/01/12 07:03:45;;;;;;;2.10;1.33;;;8.90;99.90;;;;;;4979110;28;20037;-85
2023/01/12 07:06:13;;;;;;;3.27;1.10;;;8.90;99.90;;;;;;5015081;28;20092;-85
2023/01/12 07:08:39;;;;;;;3.30;1.57;;;8.90;99.90;;;;;;5036090;28;20085;-85
2023/01/12 07:11:07;;;;;;;2.10;1.23;;;8.90;99.90;;;;;;5031432;28;20069;-85
2023/01/12 07:13:33;;;;;;;2.57;1.60;;;9.00;99.90;;;;;;5031461;28;20485;-83
2023/01/12 07:16:00;;;;;;;2.30;1.40;;;9.00;99.90;;;;;;5031502;28;20057;-86
2023/01/12 07:18:26;;;;;;;3.07;1.30;;;9.00;99.90;;;;;;5015130;28;20038;-84
2023/01/12 07:20:53;;;;;;;2.07;1.60;;;9.00;99.90;;;;;;5004939;28;20885;-84
2023/01/12 07:23:19;;;;;;;2.63;1.30;;;9.00;99.90;;;;;;4995693;28;20117;-85
2023/01/12 07:25:45;;;;;;;2.57;1.60;;;9.10;99.90;;;;;;5008737;28;20034;-86
2023/01/12 07:28:10;;;;;;;2.20;1.10;;;9.10;99.90;;;;;;5031223;28;20030;-87
2023/01/12 07:30:36;;;;;;;2.83;1.73;;;9.10;99.90;;;;;;5031500;28;20078;-85
2023/01/12 07:33:11;;;;;;;2.73;1.40;;;9.10;99.90;;;;;;5031494;28;20291;-84
2023/01/12 07:35:37;;;;;;;1.90;1.20;;;9.20;99.90;;;;;;5011784;28;20045;-84
2023/01/12 07:38:03;;;;;;;1.33;1.23;;;9.20;99.90;;;;;;5012913;28;20104;-82
2023/01/12 07:40:29;;;;;;;3.10;1.83;;;9.20;99.90;;;;;;5047068;28;20053;-83
2023/01/12 07:42:59;;;;;;;3.50;2.00;;;9.20;99.90;;;;;;5016422;28;20038;-85
2023/01/12 07:45:26;;;;;;;2.17;1.90;;;9.30;99.90;;;;;;5018151;28;20389;-86
2023/01/12 07:47:53;;;;;;;3.30;1.90;;;9.30;99.90;;;;;;5012722;28;20076;-84
2023/01/12 07:50:19;;;;;;;4.03;1.97;;;9.30;99.90;;;;;;5022422;28;20060;-84
2023/01/12 07:52:45;;;;;;;5.60;1.80;;;9.30;99.90;;;;;;5031202;28;20045;-84
2023/01/12 07:55:11;;;;;;;4.00;2.30;;;9.40;99.90;;;;;;5019937;28;20048;-87
2023/01/12 07:57:36;;;;;;;3.33;2.20;;;9.30;99.90;;;;;;5025846;28;20152;-84
2023/01/12 08:00:04;;;;;;;4.87;2.70;;;9.40;99.90;;;;;;5030901;28;20104;-85
2023/01/12 08:02:30;;;;;;;2.43;2.10;;;9.40;99.90;;;;;;5018843;28;20796;-86
2023/01/12 08:04:56;;;;;;;4.57;2.50;;;9.40;99.90;;;;;;5022902;28;20068;-85
2023/01/12 08:07:22;;;;;;;6.13;2.67;;;9.40;99.90;;;;;;5025518;28;20044;-83
2023/01/12 08:09:48;;;;;;;2.63;2.33;;;9.50;99.90;;;;;;5017013;28;20073;-87
2023/01/12 08:12:14;;;;;;;2.80;2.03;;;9.50;99.90;;;;;;5027374;28;20131;-82
2023/01/12 08:14:41;;;;;;;3.13;2.50;;;9.50;99.90;;;;;;5030911;28;20038;-87
2023/01/12 08:17:17;;;;;;;4.33;2.50;;;9.50;99.90;;;;;;5030556;28;20030;-86
2023/01/12 08:19:52;;;;;;;5.33;2.80;;;9.50;99.90;;;;;;5014657;28;20037;-85
2023/01/12 08:22:23;;;;;;;3.70;2.93;;;9.60;99.90;;;;;;5034012;28;20404;-86
2023/01/12 08:25:00;;;;;;;5.25;2.58;;;9.60;99.90;;;;;;5040845;28;21064;-85
2023/01/12 08:27:29;;;;;;;3.23;2.43;;;9.60;99.90;;;;;;5025964;28;20036;-85
2023/01/12 08:29:58;;;;;;;6.67;2.67;;;9.60;99.90;;;;;;5034049;28;20393;-86
2023/01/12 08:32:27;;;;;;;8.90;3.17;;;9.60;99.90;;;;;;5019795;28;20051;-86
2023/01/12 08:34:55;;;;;;;6.63;2.93;;;9.70;99.90;;;;;;5014185;28;20038;-85
2023/01/12 08:37:23;;;;;;;8.13;3.70;;;9.80;99.90;;;;;;5010396;28;20052;-85
2023/01/12 08:39:50;;;;;;;10.07;3.50;;;9.80;99.90;;;;;;5010819;28;20156;-87
2023/01/12 08:42:16;;;;;;;11.27;3.80;;;9.80;99.90;;;;;;5010434;28;20359;-86
2023/01/12 08:44:42;;;;;;;9.83;3.20;;;9.80;99.90;;;;;;4995725;28;20034;-85
2023/01/12 08:47:20;;;;;;;10.50;3.10;;;9.90;99.90;;;;;;5030303;28;20037;-84
2023/01/12 08:49:48;;;;;;;9.17;3.20;;;9.90;99.90;;;;;;5031094;28;20042;-87
2023/01/12 08:52:15;;;;;;;14.60;3.10;;;10.00;99.90;;;;;;5024092;28;20499;-85
2023/01/12 08:54:41;;;;;;;16.50;4.00;;;10.00;99.90;;;;;;5028888;28;20045;-85
2023/01/12 08:57:06;;;;;;;14.37;3.50;;;10.00;99.90;;;;;;5030147;28;20033;-85
2023/01/12 08:59:32;;;;;;;17.93;4.23;;;10.10;99.90;;;;;;5023395;28;20056;-84
2023/01/12 09:01:58;;;;;;;18.57;4.67;;;10.20;99.90;;;;;;5020033;28;20049;-86
2023/01/12 09:04:23;;;;;;;17.90;4.07;;;10.20;99.90;;;;;;5014213;28;20041;-85
2023/01/12 09:06:49;;;;;;;19.43;4.20;;;10.30;99.90;;;;;;5010393;28;20390;-84
2023/01/12 09:09:18;;;;;;;16.63;4.60;;;10.40;99.90;;;;;;5006911;28;20053;-86
2023/01/12 09:11:45;;;;;;;18.80;4.00;;;10.40;99.90;;;;;;5010584;28;20050;-84
2023/01/12 09:14:13;;;;;;;17.97;3.90;;;10.40;99.90;;;;;;5009936;28;20048;-83
2023/01/12 09:16:39;;;;;;;20.33;4.50;;;10.50;99.90;;;;;;5010139;28;20045;-85
2023/01/12 09:19:06;;;;;;;24.23;4.83;;;10.50;99.90;;;;;;5011328;28;20042;-83
2023/01/12 09:21:34;;;;;;;18.33;4.03;;;10.60;99.90;;;;;;5026323;28;20049;-84
2023/01/12 09:24:00;;;;;;;21.93;4.23;;;10.60;99.90;;;;;;5026161;28;20034;-85
2023/01/12 09:26:34;;;;;;;18.67;4.17;;;10.60;99.90;;;;;;4976964;28;20037;-83
2023/01/12 09:29:02;;;;;;;21.53;4.53;;;10.60;99.90;;;;;;5009850;28;20034;-82
2023/01/12 09:31:30;;;;;;;18.87;3.80;;;10.70;99.90;;;;;;5013225;28;20124;-85
2023/01/12 09:33:57;;;;;;;16.90;3.80;;;10.70;99.90;;;;;;5013376;28;20057;-84
2023/01/12 09:36:28;;;;;;;18.43;4.00;;;10.80;99.90;;;;;;5013711;28;20045;-82
2023/01/12 09:38:55;;;;;;;15.45;3.92;;;10.80;99.90;;;;;;5028047;28;20092;-84
2023/01/12 09:47:49;;;;;;;21.27;4.27;;;10.90;99.90;;;;;;5013997;28;20402;-82
2023/01/12 09:50:47;;;;;;;17.77;4.07;;;10.90;99.90;;;;;;5010200;28;20054;-83
2023/01/12 09:53:17;;;;;;;17.77;3.80;;;10.90;99.90;;;;;;4988872;28;20058;-83
2023/01/12 09:56:01;;;;;;;16.27;4.37;;;11.00;99.90;;;;;;5008905;28;20049;-82
2023/01/12 09:58:33;;;;;;;12.30;3.43;;;11.00;99.90;;;;;;5003606;28;20056;-83
2023/01/12 10:01:06;;;;;;;13.85;3.65;;;11.00;99.90;;;;;;5029798;28;20890;-83
2023/01/12 10:03:37;;;;;;;15.20;4.30;;;11.00;99.90;;;;;;5013283;28;20040;-83
2023/01/12 10:06:04;;;;;;;15.40;4.07;;;11.00;99.90;;;;;;5012943;28;20042;-84
2023/01/12 10:08:38;;;;;;;19.43;4.83;;;11.00;99.90;;;;;;5017736;28;20535;-82
2023/01/12 10:11:10;;;;;;;18.13;3.87;;;11.10;99.90;;;;;;5001325;28;20049;-83
2023/01/12 10:13:49;;;;;;;16.27;4.20;;;11.10;99.90;;;;;;5016416;28;20045;-86
2023/01/12 10:16:35;;;;;;;17.77;4.13;;;11.00;99.90;;;;;;5005496;28;20104;-84
2023/01/12 10:19:12;;;;;;;11.33;4.00;;;11.00;99.90;;;;;;5036250;28;20524;-86
2023/01/12 10:21:40;;;;;;;15.27;4.30;;;11.10;99.90;;;;;;5017314;28;20041;-87
2023/01/12 10:24:11;;;;;;;17.33;4.50;;;11.10;99.90;;;;;;5035870;28;20041;-85
2023/01/12 10:26:41;;;;;;;19.98;4.65;;;11.10;99.90;;;;;;5019733;28;20041;-86
2023/01/12 10:29:10;;;;;;;17.17;4.63;;;11.10;99.90;;;;;;5022083;28;20091;-84
2023/01/12 10:31:35;;;;;;;15.83;3.97;;;11.20;99.90;;;;;;5035840;28;20051;-86
2023/01/12 10:34:06;;;;;;;21.00;3.90;;;11.20;99.90;;;;;;5027330;28;20041;-84
2023/01/12 10:36:48;;;;;;;19.73;4.77;;;11.20;99.90;;;;;;5019415;28;20087;-87
2023/01/12 10:39:30;;;;;;;21.02;4.40;;;11.30;99.90;;;;;;5019940;28;20051;-87
2023/01/12 10:45:22;;;;;;;15.23;4.00;;;11.40;99.90;;;;;;5027926;28;19923;-85
2023/01/12 10:47:49;;;;;;;17.03;4.17;;;11.60;99.90;;;;;;5032181;28;20033;-87
2023/01/12 10:50:28;;;;;;;15.80;4.03;;;11.70;99.90;;;;;;5035304;28;20048;-84
2023/01/12 10:53:16;;;;;;;16.45;3.28;;;11.70;99.90;;;;;;5018988;28;20124;-85
2023/01/12 10:55:42;;;;;;;13.95;3.40;;;11.80;99.90;;;;;;5051462;28;20068;-86
2023/01/12 10:58:24;;;;;;;19.65;4.00;;;11.80;99.90;;;;;;5051655;28;20045;-84
2023/01/12 11:00:51;;;;;;;13.38;3.53;;;11.80;99.90;;;;;;5019231;28;20040;-85
2023/01/12 11:03:32;;;;;;;13.57;3.42;;;11.80;99.90;;;;;;5019159;28;20111;-86
2023/01/12 11:06:30;;;;;;;15.35;3.60;;;11.80;99.90;;;;;;5008420;28;20090;-87
2023/01/12 11:08:56;;;;;;;16.40;4.10;;;11.80;99.90;;;;;;5031549;28;20084;-86
2023/01/12 11:11:29;;;;;;;16.77;3.38;;;11.70;99.90;;;;;;5035474;28;20056;-84
2023/01/12 11:14:03;;;;;;;12.25;3.83;;;11.70;99.90;;;;;;5035071;28;20128;-85
2023/01/12 11:16:36;;;;;;;19.17;3.75;;;11.70;99.90;;;;;;5018044;28;20507;-86
2023/01/12 11:19:18;;;;;;;11.45;3.40;;;11.60;99.90;;;;;;5039207;28;20540;-85
2023/01/12 11:21:50;;;;;;;;;;;11.60;99.90;;;;;;5033714;28;20095;-87
2023/01/12 11:24:27;;;;;;;16.40;4.23;;;11.60;99.90;;;;;;5034881;28;19916;-84
2023/01/12 11:27:09;;;;;;;15.27;3.88;;;11.60;99.90;;;;;;5044549;28;20076;-88
2023/01/12 11:29:45;;;;;;;16.40;4.13;;;11.60;99.90;;;;;;5026069;28;20481;-87
2023/01/12 11:32:30;;;;;;;16.30;3.80;;;11.60;99.90;;;;;;5015362;28;20392;-86
2023/01/12 11:35:04;;;;;;;19.08;4.50;;;11.60;99.90;;;;;;5032712;28;20079;-85
2023/01/12 11:37:34;;;;;;;14.60;3.80;;;11.70;99.90;;;;;;5009196;28;20647;-88
2023/01/12 11:40:06;;;;;;;16.83;4.32;;;11.70;99.90;;;;;;5047423;28;20459;-87
2023/01/12 11:45:39;;;;;;;18.10;4.45;;;11.80;99.90;;;;;;5034516;28;20057;-87
2023/01/12 11:48:22;;;;;;;19.93;4.63;;;11.80;99.90;;;;;;5036807;28;20045;-87
2023/01/12 11:50:49;;;;;;;18.05;4.35;;;11.90;99.90;;;;;;5034090;28;20063;-85
2023/01/12 11:53:20;;;;;;;15.55;3.92;;;11.90;99.90;;;;;;5034496;28;20041;-86
2023/01/12 11:56:16;;;;;;;11.77;3.42;;;11.90;99.90;;;;;;5025560;28;20645;-88
2023/01/12 11:58:48;;;;;;;14.73;4.15;;;11.90;99.90;;;;;;5017671;28;20056;-88
2023/01/12 12:01:42;;;;;;;15.73;3.40;;;12.00;99.90;;;;;;5030672;28;20489;-89
2023/01/12 12:04:29;;;;;;;13.20;3.42;;;12.00;99.90;;;;;;5030658;28;20037;-87
2023/01/12 12:06:59;;;;;;;12.40;3.38;;;11.90;99.90;;;;;;5007341;28;20110;-87
2023/01/12 12:09:58;;;;;;;14.23;3.65;;;11.90;99.90;;;;;;5030524;28;20251;-87
2023/01/12 12:13:02;;;;;;;13.02;3.38;;;11.90;99.90;;;;;;5034670;28;20765;-87
2023/01/12 12:15:48;;;;;;;14.30;3.92;;;11.80;99.90;;;;;;5014857;28;20055;-84
2023/01/12 12:18:33;;;;;;;15.35;3.33;;;11.80;99.90;;;;;;5014134;28;20132;-85
2023/01/12 12:21:19;;;;;;;14.73;3.92;;;11.80;99.90;;;;;;5025733;28;20726;-85
2023/01/12 12:24:25;;;;;;;8.93;3.20;;;11.80;99.90;;;;;;5050923;28;20091;-85
2023/01/12 12:27:17;;;;;;;18.52;4.30;;;11.80;99.90;;;;;;5033890;28;20103;-86
2023/01/12 12:30:06;;;;;;;11.60;3.05;;;11.80;99.90;;;;;;4993631;28;20068;-86
2023/01/12 12:32:56;;;;;;;15.30;3.50;;;11.80;99.90;;;;;;5049751;28;20098;-87
2023/01/12 12:35:43;;;;;;;17.80;3.83;;;11.80;99.90;;;;;;5033577;28;20523;-83
2023/01/12 12:38:30;;;;;;;12.32;3.67;;;11.80;99.90;;;;;;5025862;28;20119;-87
2023/01/12 12:47:41;;;;;;;15.15;4.07;;;11.70;99.90;;;;;;5029033;28;20146;-86
2023/01/12 12:50:43;;;;;;;14.82;3.58;;;11.70;99.90;;;;;;5032371;28;20780;-84
2023/01/12 12:53:23;;;;;;;18.02;4.50;;;11.70;99.90;;;;;;5004408;28;20060;-86
2023/01/12 12:55:54;;;;;;;16.73;3.85;;;11.60;99.90;;;;;;5013822;28;20075;-87
2023/01/12 12:58:20;;;;;;;16.63;3.67;;;11.60;99.90;;;;;;5014345;28;20424;-85
2023/01/12 13:00:47;;;;;;;15.52;3.67;;;11.60;99.90;;;;;;5030046;28;20104;-86
2023/01/12 13:03:37;;;;;;;16.88;4.10;;;11.50;99.90;;;;;;5030967;28;20049;-85
2023/01/12 13:06:23;;;;;;;17.13;4.18;;;11.50;99.90;;;;;;5054411;28;20091;-86
2023/01/12 13:08:52;;;;;;;16.73;3.90;;;11.40;99.90;;;;;;5020856;28;20072;-87
2023/01/12 13:11:19;;;;;;;17.50;4.50;;;11.40;99.90;;;;;;5030771;28;20292;-86
2023/01/12 13:14:15;;;;;;;21.80;4.18;;;11.40;99.90;;;;;;5024188;28;20045;-86
2023/01/12 13:16:50;;;;;;;21.92;4.70;;;11.30;99.90;;;;;;5037439;28;20041;-85
2023/01/12 13:19:35;;;;;;;22.15;4.63;;;11.30;99.90;;;;;;5027677;28;20086;-87
2023/01/12 13:22:43;;;;;;;17.15;4.78;;;11.30;99.90;;;;;;5053859;28;20091;-85
2023/01/12 13:25:15;;;;;;;28.73;4.97;;;11.30;99.90;;;;;;4996264;28;20093;-87
2023/01/12 13:28:04;;;;;;;20.10;4.78;;;11.30;99.90;;;;;;4968487;28;20052;-86
2023/01/12 13:30:29;;;;;;;21.40;4.60;;;11.40;99.90;;;;;;5023855;28;20049;-85
2023/01/12 13:32:59;;;;;;;17.77;4.70;;;11.40;99.90;;;;;;5042723;28;20133;-86
2023/01/12 13:35:32;;;;;;;19.30;4.65;;;11.40;99.90;;;;;;5016682;28;20370;-85
2023/01/12 13:38:18;;;;;;;18.88;4.50;;;11.50;99.90;;;;;;5007256;28;20045;-87
2023/01/12 13:40:45;;;;;;;22.67;4.60;;;11.50;99.90;;;;;;4963826;28;20496;-88
2023/01/12 13:43:29;;;;;;;16.00;3.88;;;11.50;99.90;;;;;;5036123;28;20392;-84
2023/01/12 13:46:09;;;;;;;21.05;4.63;;;11.50;99.90;;;;;;5027342;28;20127;-88
2023/01/12 13:48:38;;;;;;;16.48;4.60;;;11.60;99.90;;;;;;5015692;28;20532;-88
2023/01/12 13:51:19;;;;;;;20.70;4.47;;;11.60;99.90;;;;;;5029044;28;20056;-87
2023/01/12 13:54:01;;;;;;;15.60;4.88;;;11.60;99.90;;;;;;5025054;28;20099;-86
2023/01/12 13:56:27;;;;;;;18.37;4.97;;;11.60;99.90;;;;;;5028649;28;20052;-85
2023/01/12 13:58:59;;;;;;;16.55;4.82;;;11.60;99.90;;;;;;5027781;28;20335;-84
2023/01/12 14:01:27;;;;;;;;;;;11.60;99.90;;;;;;5011036;28;20052;-85